Time;durP1;ratioP1;P1;durP2;ratioP2;P2;SDS_P1;SDS_P2;PMS_P1;PMS_P2;Temp;Humidity;BMP_temperature;BMP_pressure;BME280_temperature;BME280_humidity;BME280_pressure;Samples;Min_cycle;Max_cycle;Signal;HPM_P1;HPM_P2
2021/05/22 00:00:19;;;;;;;9.88;1.95;;;;;;;;;;10303942;28;20106;-65
2021/05/22 00:05:16;;;;;;;5.72;1.75;;;;;;;;;;10293622;28;20470;-65
2021/05/22 00:10:13;;;;;;;8.65;2.30;;;;;;;;;;10305795;28;20461;-65
2021/05/22 00:15:10;;;;;;;8.07;1.92;;;;;;;;;;10303918;28;20067;-67
2021/05/22 00:20:08;;;;;;;9.57;2.83;;;;;;;;;;10293128;28;20127;-66
2021/05/22 00:25:04;;;;;;;8.85;1.92;;;;;;;;;;10303163;28;20048;-68
2021/05/22 00:30:02;;;;;;;8.60;1.80;;;;;;;;;;10299595;28;20051;-69
2021/05/22 00:35:00;;;;;;;13.30;2.92;;;;;;;;;;10305375;28;20721;-69
2021/05/22 00:39:56;;;;;;;6.50;1.95;;;;;;;;;;10295961;28;20111;-66
2021/05/22 00:45:03;;;;;;;6.25;1.60;;;;;;;;;;10302287;28;20080;-65
2021/05/22 00:49:59;;;;;;;7.32;1.83;;;;;;;;;;10304890;28;20135;-66
2021/05/22 00:54:56;;;;;;;9.88;2.28;;;;;;;;;;10300502;28;20041;-67
2021/05/22 00:59:52;;;;;;;10.57;2.03;;;;;;;;;;10310068;28;20049;-66
2021/05/22 01:04:49;;;;;;;8.18;1.90;;;;;;;;;;10309888;28;20522;-69
2021/05/22 01:09:47;;;;;;;6.68;1.45;;;;;;;;;;10296945;28;20041;-65
2021/05/22 01:14:46;;;;;;;10.05;2.20;;;;;;;;;;10296404;28;20044;-65
2021/05/22 01:20:01;;;;;;;10.48;2.00;;;;;;;;;;10300915;28;20068;-66
2021/05/22 01:25:06;;;;;;;9.68;2.10;;;;;;;;;;10296100;28;20456;-69
2021/05/22 01:30:03;;;;;;;7.38;1.58;;;;;;;;;;10294464;28;20056;-68
2021/05/22 01:35:00;;;;;;;7.90;1.48;;;;;;;;;;10299300;28;20128;-69
2021/05/22 01:39:56;;;;;;;7.88;1.70;;;;;;;;;;10302293;28;20076;-69
2021/05/22 01:44:52;;;;;;;6.57;1.83;;;;;;;;;;10302015;28;20056;-68
2021/05/22 01:49:50;;;;;;;6.85;1.65;;;;;;;;;;10293413;28;20044;-68
2021/05/22 01:54:48;;;;;;;7.68;1.50;;;;;;;;;;10305493;28;20037;-69
2021/05/22 01:59:44;;;;;;;6.65;1.00;;;;;;;;;;10300957;28;20094;-67
2021/05/22 02:04:44;;;;;;;8.50;1.50;;;;;;;;;;10303168;28;20033;-67
2021/05/22 02:09:40;;;;;;;8.30;1.33;;;;;;;;;;10300482;28;20049;-68
2021/05/22 02:14:37;;;;;;;11.82;2.55;;;;;;;;;;10298113;28;20049;-68
2021/05/22 02:19:35;;;;;;;9.27;1.42;;;;;;;;;;10303861;28;20498;-70
2021/05/22 02:24:31;;;;;;;7.57;1.95;;;;;;;;;;10284610;28;20060;-69
2021/05/22 02:29:28;;;;;;;10.10;1.65;;;;;;;;;;10296997;28;20118;-67
2021/05/22 02:34:44;;;;;;;14.43;1.95;;;;;;;;;;10306396;28;20044;-68
2021/05/22 02:39:41;;;;;;;9.82;1.95;;;;;;;;;;10296514;28;20048;-69
2021/05/22 02:44:37;;;;;;;7.03;1.58;;;;;;;;;;10303294;28;20068;-69
2021/05/22 02:49:40;;;;;;;8.13;1.70;;;;;;;;;;10299065;28;20079;-68
2021/05/22 02:54:39;;;;;;;7.32;1.80;;;;;;;;;;10293202;28;20061;-69
2021/05/22 02:59:36;;;;;;;8.07;1.48;;;;;;;;;;10288579;28;20388;-70
2021/05/22 03:04:33;;;;;;;9.82;1.88;;;;;;;;;;10287187;28;20045;-68
2021/05/22 03:09:30;;;;;;;6.40;1.70;;;;;;;;;;10302203;28;20048;-69
2021/05/22 03:14:26;;;;;;;10.48;1.70;;;;;;;;;;10299194;28;20453;-69
2021/05/22 03:19:22;;;;;;;10.23;1.48;;;;;;;;;;10312435;28;20088;-66
2021/05/22 03:24:19;;;;;;;7.93;1.77;;;;;;;;;;10317206;28;20091;-66
2021/05/22 03:29:15;;;;;;;10.82;1.52;;;;;;;;;;10302588;28;20451;-69
2021/05/22 03:34:11;;;;;;;9.35;2.03;;;;;;;;;;10312333;28;20068;-68
2021/05/22 03:39:08;;;;;;;7.18;1.95;;;;;;;;;;10315170;28;20457;-68
2021/05/22 03:44:04;;;;;;;5.70;1.77;;;;;;;;;;10311741;28;20052;-69
2021/05/22 03:49:01;;;;;;;8.43;1.55;;;;;;;;;;10314006;28;20044;-68
2021/05/22 03:53:57;;;;;;;8.00;1.30;;;;;;;;;;10311351;28;20044;-68
2021/05/22 03:58:54;;;;;;;8.02;2.05;;;;;;;;;;10310903;28;20047;-68
2021/05/22 04:03:50;;;;;;;8.57;1.77;;;;;;;;;;10305450;28;20578;-67
2021/05/22 04:08:46;;;;;;;6.88;1.40;;;;;;;;;;10307619;28;20071;-68
2021/05/22 04:13:43;;;;;;;8.20;1.83;;;;;;;;;;10309196;28;20041;-68
2021/05/22 04:18:39;;;;;;;7.50;1.48;;;;;;;;;;10311435;28;20044;-68
2021/05/22 04:23:35;;;;;;;6.28;1.38;;;;;;;;;;10305529;28;20498;-68
2021/05/22 04:28:32;;;;;;;4.97;1.95;;;;;;;;;;10306533;28;20044;-68
2021/05/22 04:33:28;;;;;;;7.53;1.50;;;;;;;;;;10298038;28;20461;-69
2021/05/22 04:38:24;;;;;;;6.43;1.85;;;;;;;;;;10306485;28;20041;-69
2021/05/22 04:43:21;;;;;;;7.43;1.67;;;;;;;;;;10309108;28;20083;-69
2021/05/22 04:48:17;;;;;;;7.40;1.25;;;;;;;;;;10307071;28;20098;-69
2021/05/22 04:53:14;;;;;;;6.03;1.02;;;;;;;;;;10298841;28;20136;-69
2021/05/22 04:58:10;;;;;;;5.45;1.00;;;;;;;;;;10307542;28;20459;-68
2021/05/22 05:03:06;;;;;;;3.88;0.90;;;;;;;;;;10291815;28;20049;-69
2021/05/22 05:08:03;;;;;;;6.72;0.95;;;;;;;;;;10293202;28;20076;-69
2021/05/22 05:12:59;;;;;;;5.97;1.00;;;;;;;;;;10302372;28;20124;-68
2021/05/22 05:17:55;;;;;;;7.32;1.42;;;;;;;;;;10296916;28;20033;-68
2021/05/22 05:22:52;;;;;;;6.55;0.90;;;;;;;;;;10300939;28;20049;-69
2021/05/22 05:27:48;;;;;;;4.20;0.85;;;;;;;;;;10304008;28;20037;-69
2021/05/22 05:32:44;;;;;;;5.80;1.05;;;;;;;;;;10306546;28;20079;-67
2021/05/22 05:37:41;;;;;;;7.10;1.33;;;;;;;;;;10305848;28;20574;-69
2021/05/22 05:42:37;;;;;;;9.25;1.10;;;;;;;;;;10309614;28;20071;-66
2021/05/22 05:47:34;;;;;;;8.60;0.98;;;;;;;;;;10297192;28;20045;-66
2021/05/22 05:52:31;;;;;;;5.43;1.00;;;;;;;;;;10290343;28;20119;-66
2021/05/22 05:57:27;;;;;;;4.80;0.85;;;;;;;;;;10302255;28;20114;-66
2021/05/22 06:02:24;;;;;;;5.38;1.25;;;;;;;;;;10305802;28;20044;-70
2021/05/22 06:07:20;;;;;;;6.00;0.95;;;;;;;;;;10301838;28;20084;-69
2021/05/22 06:12:17;;;;;;;6.20;1.13;;;;;;;;;;10301923;28;20094;-70
2021/05/22 06:17:13;;;;;;;7.95;1.05;;;;;;;;;;10302752;28;20052;-70
2021/05/22 06:22:10;;;;;;;7.63;1.30;;;;;;;;;;10303397;28;20094;-69
2021/05/22 06:27:11;;;;;;;5.68;1.08;;;;;;;;;;10300497;28;20041;-70
2021/05/22 06:32:09;;;;;;;7.38;1.20;;;;;;;;;;10301821;28;20041;-69
2021/05/22 06:37:06;;;;;;;7.78;0.95;;;;;;;;;;10302598;28;20068;-69
2021/05/22 06:42:02;;;;;;;7.90;1.52;;;;;;;;;;10304649;28;20106;-69
2021/05/22 06:46:59;;;;;;;6.38;1.25;;;;;;;;;;10313157;28;20041;-69
2021/05/22 06:51:55;;;;;;;6.57;1.10;;;;;;;;;;10293727;28;20571;-70
2021/05/22 06:56:51;;;;;;;6.55;1.08;;;;;;;;;;10297965;28;20102;-71
2021/05/22 07:01:48;;;;;;;3.38;0.80;;;;;;;;;;10289104;28;20099;-69
2021/05/22 07:06:44;;;;;;;6.07;1.13;;;;;;;;;;10297795;28;20111;-72
2021/05/22 07:11:43;;;;;;;9.77;1.10;;;;;;;;;;10300760;28;20509;-72
2021/05/22 07:16:39;;;;;;;4.53;1.17;;;;;;;;;;10296670;28;20053;-72
2021/05/22 07:21:37;;;;;;;10.55;1.60;;;;;;;;;;10298381;28;20041;-72
2021/05/22 07:26:33;;;;;;;5.63;1.05;;;;;;;;;;10290099;28;20048;-72
2021/05/22 07:31:32;;;;;;;3.35;0.65;;;;;;;;;;10297520;28;20052;-72
2021/05/22 07:36:28;;;;;;;5.32;1.08;;;;;;;;;;10289963;28;20049;-71
2021/05/22 07:41:25;;;;;;;6.70;1.23;;;;;;;;;;10288186;28;20102;-72
2021/05/22 07:46:21;;;;;;;6.50;1.38;;;;;;;;;;10292047;28;20049;-72
2021/05/22 07:51:17;;;;;;;6.18;0.90;;;;;;;;;;10293766;28;20060;-72
2021/05/22 07:56:14;;;;;;;5.88;0.82;;;;;;;;;;10291676;28;20402;-71
2021/05/22 08:01:10;;;;;;;5.55;0.68;;;;;;;;;;10297551;28;20048;-71
2021/05/22 08:06:07;;;;;;;5.72;1.10;;;;;;;;;;10302848;28;20079;-72
2021/05/22 08:11:03;;;;;;;3.10;0.70;;;;;;;;;;10308789;28;20040;-71
2021/05/22 08:15:59;;;;;;;3.80;0.63;;;;;;;;;;10298862;28;21768;-70
2021/05/22 08:20:56;;;;;;;4.15;0.60;;;;;;;;;;10296211;28;20053;-71
2021/05/22 08:25:53;;;;;;;5.10;0.95;;;;;;;;;;10294670;28;20037;-71
2021/05/22 08:31:09;;;;;;;5.95;0.90;;;;;;;;;;10302226;28;20572;-71
2021/05/22 08:36:07;;;;;;;3.97;0.90;;;;;;;;;;10298930;28;20122;-70
2021/05/22 08:41:04;;;;;;;8.07;2.10;;;;;;;;;;10293974;28;20449;-72
2021/05/22 08:46:01;;;;;;;4.82;0.80;;;;;;;;;;10292143;28;20075;-72
2021/05/22 08:50:57;;;;;;;7.75;1.00;;;;;;;;;;10298573;28;20417;-71
2021/05/22 08:55:54;;;;;;;7.43;1.13;;;;;;;;;;10297294;28;20102;-70
2021/05/22 09:00:50;;;;;;;5.32;0.80;;;;;;;;;;10308456;28;20048;-70
2021/05/22 09:05:46;;;;;;;9.90;1.80;;;;;;;;;;10304823;28;20679;-71
2021/05/22 09:10:47;;;;;;;7.15;1.20;;;;;;;;;;10306895;28;20049;-70
2021/05/22 09:15:43;;;;;;;3.95;1.00;;;;;;;;;;10303447;28;20113;-71
2021/05/22 09:20:41;;;;;;;7.10;1.15;;;;;;;;;;10298076;28;20093;-71
2021/05/22 09:25:39;;;;;;;7.40;1.10;;;;;;;;;;10301233;28;20106;-70
2021/05/22 09:30:36;;;;;;;8.02;1.23;;;;;;;;;;10304846;28;20075;-72
2021/05/22 09:35:33;;;;;;;6.35;1.33;;;;;;;;;;10298473;28;20051;-72
2021/05/22 09:40:35;;;;;;;8.10;1.05;;;;;;;;;;10300988;28;20839;-72
2021/05/22 09:45:42;;;;;;;3.42;1.08;;;;;;;;;;10295293;28;20060;-72
2021/05/22 09:50:40;;;;;;;7.85;1.70;;;;;;;;;;10292813;28;20541;-69
2021/05/22 09:55:37;;;;;;;8.20;1.10;;;;;;;;;;10292243;28;20048;-71
2021/05/22 10:00:34;;;;;;;3.95;0.95;;;;;;;;;;10295463;28;20102;-71
2021/05/22 10:05:36;;;;;;;5.32;1.08;;;;;;;;;;10289369;28;20053;-71
2021/05/22 10:10:44;;;;;;;4.10;0.80;;;;;;;;;;10295774;28;20064;-71
2021/05/22 10:15:41;;;;;;;5.22;1.10;;;;;;;;;;10303685;28;20094;-70
2021/05/22 10:20:37;;;;;;;5.47;1.30;;;;;;;;;;10301429;28;20584;-70
2021/05/22 10:25:34;;;;;;;4.20;1.08;;;;;;;;;;10304494;28;20044;-71
2021/05/22 10:30:30;;;;;;;5.50;1.10;;;;;;;;;;10298127;28;20071;-73
2021/05/22 10:35:27;;;;;;;4.82;1.10;;;;;;;;;;10304371;28;20053;-70
2021/05/22 10:40:59;;;;;;;10.25;1.10;;;;;;;;;;10295633;28;20106;-70
2021/05/22 10:45:58;;;;;;;5.85;1.30;;;;;;;;;;10216594;28;20037;-71
2021/05/22 10:50:55;;;;;;;6.85;1.05;;;;;;;;;;10297669;28;20060;-70
2021/05/22 10:56:15;;;;;;;6.20;1.15;;;;;;;;;;10296975;28;20076;-70
2021/05/22 11:01:28;;;;;;;5.13;1.30;;;;;;;;;;10298886;28;20068;-71
2021/05/22 11:06:45;;;;;;;6.07;1.17;;;;;;;;;;10300824;28;20106;-69
2021/05/22 11:11:41;;;;;;;11.55;6.40;;;;;;;;;;10295675;28;20052;-69
2021/05/22 11:16:37;;;;;;;4.68;0.90;;;;;;;;;;10295419;28;20091;-69
2021/05/22 11:21:37;;;;;;;5.35;1.00;;;;;;;;;;10296900;28;20055;-69
2021/05/22 11:26:42;;;;;;;7.05;1.17;;;;;;;;;;10288336;28;20051;-69
2021/05/22 11:31:39;;;;;;;6.07;2.05;;;;;;;;;;10295127;28;20517;-69
2021/05/22 11:36:35;;;;;;;4.43;0.98;;;;;;;;;;10301647;28;20044;-68
2021/05/22 11:41:32;;;;;;;7.95;1.02;;;;;;;;;;10307472;28;20688;-69
2021/05/22 11:46:29;;;;;;;3.55;1.10;;;;;;;;;;10293395;28;20055;-69
2021/05/22 11:51:32;;;;;;;4.13;1.10;;;;;;;;;;10303622;28;20510;-70
2021/05/22 11:56:31;;;;;;;3.43;1.30;;;;;;;;;;10307869;28;20048;-70
2021/05/22 12:01:31;;;;;;;4.40;1.20;;;;;;;;;;10308915;28;20474;-70
2021/05/22 12:06:41;;;;;;;4.60;1.42;;;;;;;;;;10310676;28;20056;-70
2021/05/22 12:11:54;;;;;;;5.32;1.52;;;;;;;;;;10308440;28;20110;-69
2021/05/22 12:17:00;;;;;;;8.65;1.55;;;;;;;;;;10310216;28;20076;-70
2021/05/22 12:21:56;;;;;;;4.32;1.20;;;;;;;;;;10309313;28;20044;-68
2021/05/22 12:26:55;;;;;;;5.68;1.48;;;;;;;;;;10304958;28;20053;-73
2021/05/22 12:31:56;;;;;;;6.40;1.40;;;;;;;;;;10298804;28;20041;-69
2021/05/22 12:37:16;;;;;;;3.22;1.33;;;;;;;;;;10304962;28;20082;-69
2021/05/22 12:42:17;;;;;;;4.93;1.70;;;;;;;;;;10307646;28;20056;-67
2021/05/22 12:47:14;;;;;;;3.28;1.20;;;;;;;;;;10307141;28;20044;-68
2021/05/22 12:52:10;;;;;;;5.20;1.20;;;;;;;;;;10301508;28;20556;-68
2021/05/22 12:57:11;;;;;;;3.78;1.17;;;;;;;;;;10308586;28;20052;-67
2021/05/22 13:02:16;;;;;;;4.95;1.70;;;;;;;;;;10304210;28;20051;-67
2021/05/22 13:07:12;;;;;;;3.75;1.15;;;;;;;;;;10305293;28;20102;-68
2021/05/22 13:12:08;;;;;;;4.03;1.40;;;;;;;;;;10298115;28;20041;-68
2021/05/22 13:17:05;;;;;;;5.43;1.20;;;;;;;;;;10298594;28;20036;-68
2021/05/22 13:22:17;;;;;;;5.43;1.27;;;;;;;;;;10302627;28;20493;-70
2021/05/22 13:27:14;;;;;;;6.75;1.85;;;;;;;;;;10303518;28;20446;-67
2021/05/22 13:32:15;;;;;;;3.67;1.63;;;;;;;;;;10303518;28;20040;-67
2021/05/22 13:37:11;;;;;;;4.32;2.00;;;;;;;;;;10302737;28;20040;-69
2021/05/22 13:42:07;;;;;;;3.65;1.67;;;;;;;;;;10302982;28;20562;-69
2021/05/22 13:47:05;;;;;;;8.40;2.25;;;;;;;;;;10298083;28;20090;-69
2021/05/22 13:52:02;;;;;;;5.30;1.73;;;;;;;;;;10295187;28;20182;-68
2021/05/22 13:56:59;;;;;;;3.55;1.67;;;;;;;;;;10290869;28;20136;-70
2021/05/22 14:01:55;;;;;;;3.63;1.90;;;;;;;;;;10291389;28;20503;-69
2021/05/22 14:06:53;;;;;;;7.53;1.90;;;;;;;;;;10302257;28;21632;-70
2021/05/22 14:11:49;;;;;;;3.80;1.65;;;;;;;;;;10300631;28;20048;-70
2021/05/22 14:16:48;;;;;;;6.05;2.42;;;;;;;;;;10298572;28;20446;-70
2021/05/22 14:21:44;;;;;;;4.25;1.70;;;;;;;;;;10300025;28;20044;-70
2021/05/22 14:26:40;;;;;;;4.85;1.83;;;;;;;;;;10296299;28;20584;-70
2021/05/22 14:31:37;;;;;;;4.97;1.83;;;;;;;;;;10302211;28;20045;-70
2021/05/22 14:36:34;;;;;;;5.60;1.60;;;;;;;;;;10300298;28;20098;-70
2021/05/22 14:41:30;;;;;;;3.45;1.48;;;;;;;;;;10294154;28;20048;-70
2021/05/22 14:46:26;;;;;;;2.65;1.17;;;;;;;;;;10297188;28;20133;-70
2021/05/22 14:51:23;;;;;;;3.30;1.52;;;;;;;;;;10296131;28;20057;-69
2021/05/22 14:56:19;;;;;;;4.38;1.52;;;;;;;;;;10298140;28;20048;-69
2021/05/22 15:01:15;;;;;;;4.65;1.70;;;;;;;;;;10291585;28;20044;-69
2021/05/22 15:06:12;;;;;;;3.13;1.10;;;;;;;;;;10286548;28;20052;-69
2021/05/22 15:11:08;;;;;;;4.80;1.60;;;;;;;;;;10298078;28;20056;-69
2021/05/22 15:16:07;;;;;;;3.70;1.73;;;;;;;;;;10287867;28;20044;-70
2021/05/22 15:21:04;;;;;;;5.22;1.77;;;;;;;;;;10301480;28;20075;-69
2021/05/22 15:26:00;;;;;;;3.92;1.40;;;;;;;;;;10303269;28;20168;-70
2021/05/22 15:30:57;;;;;;;3.08;1.60;;;;;;;;;;10291435;28;20139;-69
2021/05/22 15:35:57;;;;;;;4.80;2.55;;;;;;;;;;10291764;28;20056;-69
2021/05/22 15:40:53;;;;;;;3.45;1.95;;;;;;;;;;10296231;28;20133;-69
2021/05/22 15:45:52;;;;;;;5.05;1.70;;;;;;;;;;10302476;28;20090;-69
2021/05/22 16:01:23;;;;;;;4.80;3.05;;;;;;;;;;10295494;28;20447;-69
2021/05/22 16:06:19;;;;;;;14.00;10.00;;;;;;;;;;10293226;28;20106;-69
2021/05/22 16:11:16;;;;;;;3.55;2.25;;;;;;;;;;10290379;28;20132;-69
2021/05/22 16:16:12;;;;;;;7.32;2.80;;;;;;;;;;10299761;28;20071;-69
2021/05/22 16:21:09;;;;;;;5.20;1.70;;;;;;;;;;10301825;28;20463;-69
2021/05/22 16:26:05;;;;;;;3.50;1.50;;;;;;;;;;10288910;28;20041;-69
2021/05/22 16:31:02;;;;;;;3.53;1.60;;;;;;;;;;10297218;28;20103;-69
2021/05/22 16:35:59;;;;;;;18.67;8.63;;;;;;;;;;10298758;28;20414;-69
2021/05/22 16:40:55;;;;;;;5.22;1.70;;;;;;;;;;10300281;28;20049;-70
2021/05/22 16:45:51;;;;;;;3.28;1.52;;;;;;;;;;10307825;28;20124;-69
2021/05/22 16:50:48;;;;;;;4.53;1.63;;;;;;;;;;10301313;28;20048;-69
2021/05/22 16:55:44;;;;;;;5.68;2.20;;;;;;;;;;10302724;28;20543;-69
2021/05/22 17:00:41;;;;;;;4.25;2.03;;;;;;;;;;10304740;28;20534;-70
2021/05/22 17:05:41;;;;;;;4.82;2.25;;;;;;;;;;10295776;28;20101;-70
2021/05/22 17:10:38;;;;;;;8.18;2.63;;;;;;;;;;10293052;28;20521;-70
2021/05/22 17:15:34;;;;;;;4.40;2.53;;;;;;;;;;10295271;28;20568;-70
2021/05/22 17:20:31;;;;;;;4.97;2.92;;;;;;;;;;10302308;28;20049;-70
2021/05/22 17:25:28;;;;;;;5.97;2.65;;;;;;;;;;10301744;28;20502;-70
2021/05/22 17:30:28;;;;;;;7.95;2.72;;;;;;;;;;10291527;28;20520;-70
2021/05/22 17:35:25;;;;;;;5.95;3.13;;;;;;;;;;10293040;28;20098;-69
2021/05/22 17:40:25;;;;;;;5.45;2.70;;;;;;;;;;10304635;28;20052;-70
2021/05/22 17:45:23;;;;;;;8.18;3.17;;;;;;;;;;10298195;28;20063;-70
2021/05/22 17:50:19;;;;;;;7.53;3.97;;;;;;;;;;10296429;28;20056;-68
2021/05/22 17:55:16;;;;;;;7.95;3.20;;;;;;;;;;10302485;28;20547;-70
2021/05/22 18:00:14;;;;;;;7.10;2.63;;;;;;;;;;10297943;28;20754;-68
2021/05/22 18:05:14;;;;;;;36.13;21.80;;;;;;;;;;10298400;28;20048;-68
2021/05/22 18:10:12;;;;;;;10.95;5.32;;;;;;;;;;10298309;28;20056;-68
2021/05/22 18:15:09;;;;;;;29.30;14.13;;;;;;;;;;10299787;28;20436;-68
2021/05/22 18:20:06;;;;;;;19.30;7.60;;;;;;;;;;10297990;28;20044;-68
2021/05/22 18:25:03;;;;;;;8.10;2.83;;;;;;;;;;10296070;28;20114;-71
2021/05/22 18:30:00;;;;;;;10.38;3.30;;;;;;;;;;10294120;28;20048;-68
2021/05/22 18:34:56;;;;;;;5.72;2.95;;;;;;;;;;10299192;28;20437;-70
2021/05/22 18:39:53;;;;;;;7.60;3.13;;;;;;;;;;10292224;28;20056;-68
2021/05/22 18:44:50;;;;;;;7.85;2.60;;;;;;;;;;10295733;28;20073;-68
2021/05/22 18:49:47;;;;;;;9.18;3.40;;;;;;;;;;10284557;28;20105;-70
2021/05/22 18:54:43;;;;;;;8.90;2.55;;;;;;;;;;10293275;28;20091;-69
2021/05/22 18:59:41;;;;;;;7.63;2.65;;;;;;;;;;10291482;28;20122;-69
2021/05/22 19:04:38;;;;;;;7.03;2.05;;;;;;;;;;10290064;28;20076;-69
2021/05/22 19:09:34;;;;;;;6.65;2.33;;;;;;;;;;10294224;28;20049;-69
2021/05/22 19:14:31;;;;;;;7.38;1.90;;;;;;;;;;10296472;28;20097;-69
2021/05/22 19:19:27;;;;;;;9.80;2.72;;;;;;;;;;10286108;28;20045;-69
2021/05/22 19:24:23;;;;;;;7.82;1.80;;;;;;;;;;10289987;28;20053;-69
2021/05/22 19:29:20;;;;;;;7.00;1.70;;;;;;;;;;10298156;28;20145;-69
2021/05/22 19:34:17;;;;;;;8.48;2.28;;;;;;;;;;10289257;28;20099;-68
2021/05/22 19:39:13;;;;;;;6.25;1.77;;;;;;;;;;10294482;28;20044;-68
2021/05/22 19:44:10;;;;;;;7.45;2.53;;;;;;;;;;10293335;28;20755;-69
2021/05/22 19:49:06;;;;;;;8.90;4.03;;;;;;;;;;10285648;28;20108;-69
2021/05/22 19:54:03;;;;;;;6.40;1.77;;;;;;;;;;10291435;28;20113;-70
2021/05/22 19:59:00;;;;;;;10.20;2.25;;;;;;;;;;10290425;28;20052;-69
2021/05/22 20:03:57;;;;;;;9.75;1.92;;;;;;;;;;10291361;28;20083;-68
2021/05/22 20:08:53;;;;;;;6.68;2.03;;;;;;;;;;10300523;28;20131;-69
2021/05/22 20:13:50;;;;;;;7.40;1.77;;;;;;;;;;10290062;28;20066;-69
2021/05/22 20:18:46;;;;;;;7.90;1.95;;;;;;;;;;10303341;28;20052;-69
2021/05/22 20:23:43;;;;;;;9.23;2.05;;;;;;;;;;10287319;28;20460;-68
2021/05/22 20:28:39;;;;;;;11.05;2.40;;;;;;;;;;10298236;28;20075;-69
2021/05/22 20:33:36;;;;;;;7.25;2.10;;;;;;;;;;10300005;28;20398;-69
2021/05/22 20:38:33;;;;;;;16.38;7.50;;;;;;;;;;10296511;28;20117;-69
2021/05/22 20:43:29;;;;;;;7.22;1.83;;;;;;;;;;10297201;28;20445;-69
2021/05/22 20:48:26;;;;;;;12.38;2.10;;;;;;;;;;10290094;28;20095;-70
2021/05/22 20:53:24;;;;;;;4.40;1.50;;;;;;;;;;10300329;28;20060;-69
2021/05/22 20:58:20;;;;;;;9.13;1.83;;;;;;;;;;10302743;28;20040;-68
2021/05/22 21:03:17;;;;;;;7.70;1.90;;;;;;;;;;10294952;28;20068;-69
2021/05/22 21:08:14;;;;;;;10.40;2.00;;;;;;;;;;10294882;28;20091;-70
2021/05/22 21:13:10;;;;;;;9.25;1.77;;;;;;;;;;10292695;28;20127;-69
2021/05/22 21:18:27;;;;;;;8.07;1.90;;;;;;;;;;10298817;28;20506;-69
2021/05/22 21:23:23;;;;;;;9.07;1.73;;;;;;;;;;10301434;28;20098;-69
2021/05/22 21:28:19;;;;;;;8.35;1.80;;;;;;;;;;10295673;28;20135;-68
2021/05/22 21:33:16;;;;;;;10.05;2.00;;;;;;;;;;10297726;28;20106;-69
2021/05/22 21:38:12;;;;;;;11.60;2.78;;;;;;;;;;10297127;28;20505;-69
2021/05/22 21:43:08;;;;;;;8.77;1.67;;;;;;;;;;10291846;28;20036;-69
2021/05/22 21:48:05;;;;;;;8.20;1.95;;;;;;;;;;10293360;28;20098;-70
2021/05/22 21:53:01;;;;;;;5.85;1.30;;;;;;;;;;10296138;28;20443;-69
2021/05/22 21:57:58;;;;;;;8.55;1.90;;;;;;;;;;10299593;28;20044;-69
2021/05/22 22:02:55;;;;;;;12.40;2.55;;;;;;;;;;10290007;28;20090;-70
2021/05/22 22:07:51;;;;;;;10.80;1.92;;;;;;;;;;10295555;28;20040;-69
2021/05/22 22:12:48;;;;;;;10.93;1.98;;;;;;;;;;10298509;28;20060;-69
2021/05/22 22:17:49;;;;;;;9.13;1.90;;;;;;;;;;10293680;28;20048;-69
2021/05/22 22:22:46;;;;;;;7.82;1.50;;;;;;;;;;10294656;28;20037;-69
2021/05/22 22:27:42;;;;;;;10.48;2.00;;;;;;;;;;10292679;28;20040;-69
2021/05/22 22:32:38;;;;;;;8.55;2.65;;;;;;;;;;10298366;28;20072;-69
2021/05/22 22:37:35;;;;;;;9.25;1.90;;;;;;;;;;10294380;28;20078;-68
2021/05/22 22:42:31;;;;;;;7.78;1.73;;;;;;;;;;10291134;28;20044;-68
2021/05/22 22:47:28;;;;;;;6.78;1.40;;;;;;;;;;10294091;28;20044;-68
2021/05/22 22:52:25;;;;;;;9.20;1.55;;;;;;;;;;10290818;28;20148;-68
2021/05/22 22:57:22;;;;;;;7.35;1.58;;;;;;;;;;10292493;28;20595;-69
2021/05/22 23:02:19;;;;;;;6.68;1.35;;;;;;;;;;10289761;28;20094;-69
2021/05/22 23:07:16;;;;;;;7.13;1.25;;;;;;;;;;10277491;28;20721;-68
2021/05/22 23:12:12;;;;;;;6.68;1.60;;;;;;;;;;10288684;28;20352;-68
2021/05/22 23:17:08;;;;;;;6.80;1.23;;;;;;;;;;10292695;28;20088;-68
2021/05/22 23:22:05;;;;;;;9.93;1.77;;;;;;;;;;10295785;28;20052;-68
2021/05/22 23:27:01;;;;;;;7.80;2.22;;;;;;;;;;10300673;28;20487;-65
2021/05/22 23:31:58;;;;;;;9.95;1.98;;;;;;;;;;10300107;28;20040;-66
2021/05/22 23:36:55;;;;;;;4.68;1.17;;;;;;;;;;10286578;28;20045;-66
2021/05/22 23:41:51;;;;;;;6.30;1.13;;;;;;;;;;10306328;28;20044;-65
2021/05/22 23:46:48;;;;;;;11.02;1.85;;;;;;;;;;10311941;28;20064;-65
2021/05/22 23:51:44;;;;;;;6.50;1.42;;;;;;;;;;10292085;28;20334;-68
2021/05/22 23:56:40;;;;;;;4.22;1.00;;;;;;;;;;10294635;28;20079;-68
